Terminal Aerodrome Forecast
Issued by NWS Wilmington, OH

Home | Current Version | Previous Version | Text Only | Print | Product List | Glossary On
Versions: 1 2 3 4 5 6 7 8 9 10 11 12 13 14 15 16 17 18
000
FTUS41 KILN 180541
TAFDAY
TAF
KDAY 180541Z 1806/1906 18012G22KT 6SM -SHRA OVC080 WS020/20050KT
     FM180900 20014G25KT 4SM -SHRA BR VCTS OVC015CB WS020/21050KT
     FM181400 20017G27KT 6SM -SHRA VCTS OVC008CB
     FM181800 20018G32KT P6SM VCSH OVC008
     FM182100 20017G28KT 4SM SHRA BR OVC008
     FM190000 27019G27KT 4SM -SHRA OVC012
     FM190200 30023G34KT P6SM OVC012=

USA.gov is the U.S. government's official web portal to all federal, state and local government web resources and services.